createdAt,value
2019-04-27T00:00:41.761Z,12.10
2019-04-27T00:03:19.534Z,12.10
2019-04-27T00:05:56.413Z,12.00
2019-04-27T00:08:38.855Z,12.10
2019-04-27T00:11:09.691Z,12.10
2019-04-27T00:13:40.562Z,12.10
2019-04-27T00:16:13.351Z,12.10
2019-04-27T00:19:03.891Z,12.10
2019-04-27T00:21:35.027Z,12.10
2019-04-27T00:24:04.384Z,12.10
2019-04-27T00:26:33.654Z,12.00
2019-04-27T00:29:03.800Z,12.00
2019-04-27T00:31:33.789Z,12.00
2019-04-27T00:34:03.573Z,12.10
2019-04-27T00:36:46.731Z,12.10
2019-04-27T00:39:26.711Z,12.20
2019-04-27T00:41:56.007Z,12.20
2019-04-27T00:44:25.295Z,12.20
2019-04-27T00:46:54.599Z,12.20
2019-04-27T00:49:23.965Z,12.20
2019-04-27T00:51:53.690Z,12.00
2019-04-27T00:54:23.816Z,11.90
2019-04-27T00:57:12.960Z,11.80
2019-04-27T00:59:56.171Z,11.70
2019-04-27T01:02:29.780Z,11.80
2019-04-27T01:04:59.127Z,11.80
2019-04-27T01:07:28.779Z,11.80
2019-04-27T01:09:58.086Z,11.80
2019-04-27T01:12:27.445Z,11.70
2019-04-27T01:14:56.992Z,11.60
2019-04-27T01:17:26.600Z,11.70
2019-04-27T01:19:55.915Z,11.60
2019-04-27T01:22:25.209Z,11.70
2019-04-27T01:24:54.812Z,11.60
2019-04-27T01:27:25.811Z,11.60
2019-04-27T01:29:56.191Z,11.50
2019-04-27T01:32:25.784Z,11.50
2019-04-27T01:34:55.079Z,11.50
2019-04-27T01:37:24.380Z,11.40
2019-04-27T01:39:53.662Z,11.40
2019-04-27T01:42:22.966Z,11.40
2019-04-27T01:44:52.250Z,11.30
2019-04-27T01:47:21.559Z,11.40
2019-04-27T01:49:50.982Z,11.40
2019-04-27T01:52:20.299Z,11.30
2019-04-27T01:54:49.675Z,11.40
2019-04-27T01:57:19.488Z,11.40
2019-04-27T01:59:49.072Z,11.40
2019-04-27T02:02:20.714Z,11.40
2019-04-27T02:05:01.859Z,11.40
2019-04-27T02:07:31.326Z,11.40
2019-04-27T02:10:00.631Z,11.40
2019-04-27T02:12:31.505Z,11.50
2019-04-27T02:15:00.968Z,11.50
2019-04-27T02:17:30.251Z,11.40
2019-04-27T02:19:59.595Z,11.40
2019-04-27T02:22:29.724Z,11.20
2019-04-27T02:24:59.202Z,11.20
2019-04-27T02:27:30.323Z,11.20
2019-04-27T02:30:07.459Z,11.10
2019-04-27T02:32:39.750Z,11.20
2019-04-27T02:35:11.023Z,11.10
2019-04-27T02:37:40.510Z,11.10
2019-04-27T02:40:46.637Z,11.10
2019-04-27T02:43:19.246Z,11.00
2019-04-27T02:45:50.337Z,10.90
2019-04-27T02:48:19.881Z,10.90
2019-04-27T02:50:51.166Z,10.90
2019-04-27T02:53:22.095Z,10.90
2019-04-27T02:55:51.405Z,10.90
2019-04-27T02:58:21.494Z,10.90
2019-04-27T03:00:51.383Z,10.80
2019-04-27T03:03:20.663Z,10.70
2019-04-27T03:05:50.490Z,10.60
2019-04-27T03:08:20.255Z,10.60
2019-04-27T03:10:50.513Z,10.60
2019-04-27T03:13:21.511Z,10.60
2019-04-27T03:16:01.482Z,10.60
2019-04-27T03:18:33.011Z,10.60
2019-04-27T03:21:20.108Z,10.60
2019-04-27T03:23:50.213Z,10.50
2019-04-27T03:26:24.166Z,10.60
2019-04-27T03:28:54.353Z,10.60
2019-04-27T03:31:23.639Z,10.60
2019-04-27T03:33:58.887Z,10.50
2019-04-27T03:36:24.364Z,10.50
2019-04-27T03:38:53.959Z,10.60
2019-04-27T03:41:23.254Z,10.60
2019-04-27T03:43:52.549Z,10.50
2019-04-27T03:46:21.823Z,10.40
2019-04-27T03:48:51.133Z,10.50
2019-04-27T03:51:24.999Z,10.60
2019-04-27T03:54:00.488Z,10.60
2019-04-27T03:56:31.815Z,10.50
2019-04-27T03:59:03.160Z,10.50
2019-04-27T04:01:32.772Z,10.50
2019-04-27T04:04:02.052Z,10.50
2019-04-27T04:06:31.351Z,10.70
2019-04-27T04:09:00.633Z,10.70
2019-04-27T04:11:34.991Z,10.80
2019-04-27T04:14:05.917Z,10.80
2019-04-27T04:16:42.833Z,10.80
2019-04-27T04:19:12.416Z,10.80
2019-04-27T04:21:41.702Z,10.80
2019-04-27T04:24:12.180Z,10.80
2019-04-27T04:26:41.884Z,10.70
2019-04-27T04:29:11.184Z,10.60
2019-04-27T04:31:40.919Z,10.60
2019-04-27T04:34:12.199Z,10.60
2019-04-27T04:36:42.607Z,10.60
2019-04-27T04:39:12.762Z,10.60
2019-04-27T04:41:46.863Z,10.60
2019-04-27T04:44:20.274Z,10.50
2019-04-27T04:46:50.744Z,10.50
2019-04-27T04:49:20.052Z,10.50
2019-04-27T04:51:50.402Z,10.40
2019-04-27T04:54:24.119Z,10.30
2019-04-27T04:56:50.817Z,10.30
2019-04-27T04:59:20.309Z,10.20
2019-04-27T05:01:50.171Z,10.10
2019-04-27T05:04:19.548Z,9.90
2019-04-27T05:06:50.700Z,9.90
2019-04-27T05:09:20.258Z,9.90
2019-04-27T05:11:49.555Z,9.90
2019-04-27T05:14:19.951Z,10.00
2019-04-27T05:16:49.680Z,9.90
2019-04-27T05:19:19.020Z,9.90
2019-04-27T05:21:49.131Z,9.80
2019-04-27T05:24:19.216Z,9.70
2019-04-27T05:26:48.813Z,9.60
2019-04-27T05:29:19.179Z,9.60
2019-04-27T05:31:49.088Z,9.70
2019-04-27T05:34:19.694Z,9.70
2019-04-27T05:36:52.491Z,9.80
2019-04-27T05:39:24.914Z,9.90
2019-04-27T05:41:51.555Z,9.90
2019-04-27T05:44:25.394Z,9.90
2019-04-27T05:46:56.335Z,10.10
2019-04-27T05:49:27.257Z,10.30
2019-04-27T05:51:56.887Z,10.40
2019-04-27T05:54:26.182Z,10.60
2019-04-27T05:56:55.475Z,10.70
2019-04-27T05:59:24.782Z,10.80
2019-04-27T06:01:54.058Z,10.90
2019-04-27T06:04:23.768Z,11.00
2019-04-27T06:06:53.103Z,11.10
2019-04-27T06:09:22.394Z,11.10
2019-04-27T06:11:51.674Z,11.10
2019-04-27T06:14:20.967Z,11.10
2019-04-27T06:16:51.335Z,11.10
2019-04-27T06:19:20.793Z,11.20
2019-04-27T06:21:50.152Z,11.30
2019-04-27T06:24:19.439Z,11.60
2019-04-27T06:26:49.771Z,11.80
2019-04-27T06:29:19.683Z,11.80
2019-04-27T06:31:49.598Z,12.00
2019-04-27T06:34:19.483Z,12.00
2019-04-27T06:36:48.875Z,12.00
2019-04-27T06:39:20.285Z,12.00
2019-04-27T06:41:49.491Z,12.00
2019-04-27T06:44:19.631Z,12.20
2019-04-27T06:46:49.136Z,12.20
2019-04-27T06:49:19.494Z,12.40
2019-04-27T06:51:49.758Z,12.60
2019-04-27T06:54:19.774Z,12.90
2019-04-27T06:56:50.340Z,13.10
2019-04-27T06:59:19.611Z,13.00
2019-04-27T07:01:48.975Z,12.90
2019-04-27T07:04:19.572Z,12.90
2019-04-27T07:06:54.181Z,12.70
2019-04-27T07:09:20.113Z,12.60
2019-04-27T07:11:49.659Z,12.50
2019-04-27T07:14:19.819Z,12.50
2019-04-27T07:16:50.704Z,12.50
2019-04-27T07:19:20.195Z,12.50
2019-04-27T07:21:49.866Z,12.50
2019-04-27T07:24:19.700Z,12.60
2019-04-27T07:26:49.126Z,12.60
2019-04-27T07:29:19.420Z,12.60
2019-04-27T07:31:49.574Z,12.40
2019-04-27T07:34:19.330Z,12.30
2019-04-27T07:36:49.240Z,12.30
2019-04-27T07:39:19.388Z,12.20
2019-04-27T07:41:49.056Z,12.20
2019-04-27T07:44:26.143Z,12.10
2019-04-27T07:47:15.356Z,12.00
2019-04-27T07:49:45.495Z,12.00
2019-04-27T07:52:14.848Z,11.90
2019-04-27T07:54:44.138Z,11.80
2019-04-27T07:57:13.424Z,11.70
2019-04-27T07:59:42.714Z,11.60
2019-04-27T08:02:12.003Z,11.60
2019-04-27T08:04:41.502Z,11.60
2019-04-27T08:07:10.800Z,11.60
2019-04-27T08:09:40.075Z,11.60
2019-04-27T08:12:10.863Z,11.70
2019-04-27T08:14:45.616Z,11.70
2019-04-27T08:17:14.646Z,11.60
2019-04-27T08:19:43.935Z,11.50
2019-04-27T08:22:13.223Z,11.40
2019-04-27T08:24:42.524Z,11.30
2019-04-27T08:27:19.382Z,11.30
2019-04-27T08:30:05.527Z,11.30
2019-04-27T08:32:36.440Z,11.20
2019-04-27T08:35:07.334Z,11.20
2019-04-27T08:37:38.544Z,11.20
2019-04-27T08:40:09.294Z,11.20
2019-04-27T08:42:39.235Z,11.20
2019-04-27T08:45:09.905Z,11.30
2019-04-27T08:47:41.674Z,11.20
2019-04-27T08:50:10.798Z,11.20
2019-04-27T08:52:41.854Z,11.20
2019-04-27T08:55:11.788Z,11.20
2019-04-27T08:57:41.079Z,11.10
2019-04-27T09:00:10.799Z,11.00
2019-04-27T09:02:46.946Z,10.90
2019-04-27T09:05:13.154Z,10.90
2019-04-27T09:07:53.143Z,10.90
2019-04-27T09:10:36.315Z,11.00
2019-04-27T09:13:10.290Z,11.00
2019-04-27T09:15:47.110Z,11.10
2019-04-27T09:18:19.174Z,11.10
2019-04-27T09:20:52.939Z,11.20
2019-04-27T09:23:22.220Z,11.30
2019-04-27T09:25:51.517Z,11.40
2019-04-27T09:28:21.909Z,11.40
2019-04-27T09:30:51.354Z,11.50
2019-04-27T09:33:22.374Z,11.60
2019-04-27T09:35:51.939Z,11.80
2019-04-27T09:38:21.510Z,11.90
2019-04-27T09:40:50.818Z,12.10
2019-04-27T09:43:20.082Z,12.30
2019-04-27T09:45:49.389Z,12.40
2019-04-27T09:48:18.662Z,12.60
2019-04-27T09:50:47.954Z,12.70
2019-04-27T09:53:17.518Z,12.90
2019-04-27T09:55:46.936Z,13.00
2019-04-27T09:58:18.462Z,13.00
2019-04-27T10:00:49.391Z,13.00
2019-04-27T10:03:18.746Z,12.90
2019-04-27T10:05:48.330Z,12.90
2019-04-27T10:08:17.631Z,12.90
2019-04-27T10:10:48.008Z,12.90
2019-04-27T10:13:17.481Z,12.90
2019-04-27T10:15:46.758Z,12.80
2019-04-27T10:18:16.440Z,12.70
2019-04-27T10:20:56.955Z,12.80
2019-04-27T10:23:17.011Z,12.70
2019-04-27T10:25:46.622Z,12.60
2019-04-27T10:28:15.923Z,12.40
2019-04-27T10:30:45.805Z,12.20
2019-04-27T10:33:16.088Z,12.20
2019-04-27T10:35:47.220Z,12.20
2019-04-27T10:38:17.242Z,12.10
2019-04-27T10:40:46.786Z,12.10
2019-04-27T10:43:16.078Z,12.00
2019-04-27T10:45:46.334Z,12.10
2019-04-27T10:48:16.369Z,12.10
2019-04-27T10:50:46.769Z,12.20
2019-04-27T10:53:16.888Z,12.20
2019-04-27T10:55:46.580Z,12.30
2019-04-27T10:58:16.206Z,12.30
2019-04-27T11:00:56.547Z,12.20
2019-04-27T11:03:46.214Z,12.10
2019-04-27T11:06:29.266Z,12.00
2019-04-27T11:08:58.810Z,12.00
2019-04-27T11:11:28.100Z,11.90
2019-04-27T11:14:00.860Z,11.80
2019-04-27T11:16:28.704Z,11.80
2019-04-27T11:18:58.756Z,11.80
2019-04-27T11:21:28.227Z,11.80
2019-04-27T11:23:57.515Z,11.70
2019-04-27T11:26:27.086Z,11.70
2019-04-27T11:28:56.443Z,11.90
2019-04-27T11:31:26.165Z,12.00
2019-04-27T11:33:56.679Z,12.00
2019-04-27T11:36:27.728Z,12.00
2019-04-27T11:38:58.660Z,12.10
2019-04-27T11:41:27.935Z,11.90
2019-04-27T11:43:57.231Z,11.90
2019-04-27T11:46:26.739Z,11.80
2019-04-27T11:48:58.045Z,11.90
2019-04-27T11:51:27.064Z,11.90
2019-04-27T11:53:56.659Z,11.80
2019-04-27T11:56:27.439Z,11.70
2019-04-27T11:58:56.846Z,11.70
2019-04-27T12:01:27.035Z,11.70
2019-04-27T12:03:56.731Z,11.80
2019-04-27T12:06:26.070Z,11.90
2019-04-27T12:08:58.232Z,12.00
2019-04-27T12:11:27.504Z,12.10
2019-04-27T12:13:57.111Z,12.30
2019-04-27T12:16:29.696Z,12.40
2019-04-27T12:18:58.989Z,12.50
2019-04-27T12:21:30.772Z,12.60
2019-04-27T12:24:00.058Z,12.70
2019-04-27T12:26:32.517Z,12.60
2019-04-27T12:29:03.659Z,12.60
2019-04-27T12:31:37.736Z,12.60
2019-04-27T12:34:07.012Z,12.60
2019-04-27T12:36:39.160Z,12.50
2019-04-27T12:39:11.171Z,12.40
2019-04-27T12:41:42.136Z,12.40
2019-04-27T12:44:17.352Z,12.60
2019-04-27T12:46:49.273Z,12.90
2019-04-27T12:49:18.519Z,13.10
2019-04-27T12:51:49.410Z,13.20
2019-04-27T12:54:36.286Z,13.00
2019-04-27T12:57:26.374Z,12.90
2019-04-27T13:00:02.956Z,12.70
2019-04-27T13:02:35.422Z,12.80
2019-04-27T13:05:11.231Z,12.70
2019-04-27T13:07:42.725Z,12.60
2019-04-27T13:10:12.735Z,12.40
2019-04-27T13:12:42.038Z,12.20
2019-04-27T13:15:12.310Z,11.90
2019-04-27T13:17:44.802Z,11.40
2019-04-27T13:20:17.843Z,11.10
2019-04-27T13:22:50.099Z,11.00
2019-04-27T13:25:21.438Z,10.80
2019-04-27T13:27:51.207Z,10.70
2019-04-27T13:30:25.637Z,10.60
2019-04-27T13:32:56.701Z,10.50
2019-04-27T13:35:28.651Z,10.40
2019-04-27T13:37:57.986Z,10.20
2019-04-27T13:40:30.579Z,10.10
2019-04-27T13:43:09.855Z,9.90
2019-04-27T13:45:46.717Z,9.80
2019-04-27T13:48:26.112Z,9.70
2019-04-27T13:51:04.403Z,9.70
2019-04-27T13:53:33.691Z,9.70
2019-04-27T13:56:06.101Z,9.80
2019-04-27T13:58:36.002Z,9.90
2019-04-27T14:01:05.270Z,10.00
2019-04-27T14:03:34.848Z,10.10
2019-04-27T14:06:04.122Z,10.20
2019-04-27T14:08:34.216Z,10.30
2019-04-27T14:11:06.825Z,10.50
2019-04-27T14:13:36.442Z,10.40
2019-04-27T14:16:05.723Z,10.40
2019-04-27T14:18:35.235Z,10.40
2019-04-27T14:21:04.518Z,10.40
2019-04-27T14:23:33.793Z,10.40
2019-04-27T14:26:03.087Z,10.50
2019-04-27T14:28:32.362Z,10.60
2019-04-27T14:31:01.654Z,10.70
2019-04-27T14:33:30.948Z,10.90
2019-04-27T14:36:00.257Z,11.20
2019-04-27T14:38:29.562Z,11.40
2019-04-27T14:40:59.434Z,11.70
2019-04-27T14:43:28.827Z,12.10
2019-04-27T14:45:58.376Z,12.40
2019-04-27T14:48:29.552Z,12.80
2019-04-27T14:50:59.339Z,13.10
2019-04-27T14:53:28.625Z,13.40
2019-04-27T14:55:58.451Z,13.40
2019-04-27T14:58:28.504Z,13.30
2019-04-27T15:00:58.525Z,13.40
2019-04-27T15:03:28.069Z,13.50
2019-04-27T15:05:57.584Z,13.40
2019-04-27T15:08:26.859Z,13.30
2019-04-27T15:10:56.150Z,13.20
2019-04-27T15:13:25.419Z,13.30
2019-04-27T15:15:54.944Z,13.20
2019-04-27T15:18:25.871Z,13.30
2019-04-27T15:20:58.556Z,13.40
2019-04-27T15:23:26.649Z,13.50
2019-04-27T15:25:57.355Z,13.70
2019-04-27T15:28:32.069Z,13.60
2019-04-27T15:31:03.187Z,13.70
2019-04-27T15:33:54.681Z,13.70
2019-04-27T15:36:40.919Z,13.90
2019-04-27T15:39:30.491Z,14.00
2019-04-27T15:42:08.219Z,14.50
2019-04-27T15:44:41.119Z,15.30
2019-04-27T15:47:11.945Z,15.60
2019-04-27T15:49:45.040Z,15.90
2019-04-27T15:52:11.439Z,16.10
2019-04-27T15:54:40.743Z,16.40
2019-04-27T15:57:13.691Z,16.50
2019-04-27T15:59:41.161Z,16.50
2019-04-27T16:02:15.234Z,16.20
2019-04-27T16:04:44.479Z,15.50
2019-04-27T16:07:12.888Z,15.00
2019-04-27T16:09:42.147Z,14.50
2019-04-27T16:12:12.905Z,14.40
2019-04-27T16:14:44.154Z,14.40
2019-04-27T16:17:13.684Z,14.10
2019-04-27T16:19:47.310Z,13.90
2019-04-27T16:22:14.022Z,13.80
2019-04-27T16:24:43.618Z,13.60
2019-04-27T16:27:12.910Z,13.40
2019-04-27T16:29:42.186Z,13.00
2019-04-27T16:32:11.608Z,12.70
2019-04-27T16:34:41.309Z,12.20
2019-04-27T16:37:13.971Z,11.80
2019-04-27T16:39:45.705Z,11.30
2019-04-27T16:42:15.462Z,11.10
2019-04-27T16:44:49.467Z,11.10
2019-04-27T16:47:18.880Z,11.00
2019-04-27T16:49:48.352Z,11.00
2019-04-27T16:52:19.218Z,11.20
2019-04-27T16:54:57.132Z,11.30
2019-04-27T16:57:21.338Z,11.30
2019-04-27T16:59:56.776Z,11.40
2019-04-27T17:02:25.100Z,11.50
2019-04-27T17:04:55.626Z,11.50
2019-04-27T17:07:23.904Z,11.40
2019-04-27T17:09:53.203Z,11.20
2019-04-27T17:12:23.865Z,11.20
2019-04-27T17:15:13.657Z,11.20
2019-04-27T17:17:48.701Z,11.30
2019-04-27T17:20:21.229Z,11.10
2019-04-27T17:22:53.396Z,11.00
2019-04-27T17:25:23.216Z,10.90
2019-04-27T17:27:57.892Z,10.80
2019-04-27T17:30:25.643Z,10.70
2019-04-27T17:33:10.848Z,10.60
2019-04-27T17:35:39.500Z,10.50
2019-04-27T17:38:12.209Z,10.50
2019-04-27T17:40:39.078Z,10.50
2019-04-27T17:43:10.557Z,10.50
2019-04-27T17:45:39.750Z,10.50
2019-04-27T17:48:10.837Z,10.50
2019-04-27T17:50:40.667Z,10.60
2019-04-27T17:53:10.241Z,10.60
2019-04-27T17:55:39.522Z,10.60
2019-04-27T17:58:08.815Z,10.50
2019-04-27T18:00:43.167Z,10.40
2019-04-27T18:03:12.610Z,10.60
2019-04-27T18:05:43.852Z,10.90
2019-04-27T18:08:13.597Z,11.20
2019-04-27T18:10:42.011Z,11.20
2019-04-27T18:13:11.302Z,11.20
2019-04-27T18:15:40.593Z,11.00
2019-04-27T18:18:28.105Z,10.90
2019-04-27T18:20:57.466Z,10.80
2019-04-27T18:23:31.086Z,10.70
2019-04-27T18:26:17.427Z,10.70
2019-04-27T18:28:52.296Z,10.70
2019-04-27T18:31:18.016Z,10.70
2019-04-27T18:33:47.305Z,10.70
2019-04-27T18:36:18.128Z,10.60
2019-04-27T18:38:49.177Z,10.60
2019-04-27T18:41:18.651Z,10.70
2019-04-27T18:43:52.147Z,10.60
2019-04-27T18:46:24.451Z,10.60
2019-04-27T18:48:53.870Z,10.50
2019-04-27T18:51:25.080Z,10.40
2019-04-27T18:53:59.820Z,10.50
2019-04-27T18:56:28.838Z,10.50
2019-04-27T18:58:58.001Z,10.50
2019-04-27T19:01:28.952Z,10.50
2019-04-27T19:03:58.719Z,10.40
2019-04-27T19:06:29.011Z,10.80
2019-04-27T19:08:59.079Z,11.00
2019-04-27T19:11:29.058Z,11.10
2019-04-27T19:13:59.072Z,11.10
2019-04-27T19:16:29.190Z,10.90
2019-04-27T19:18:58.714Z,10.60
2019-04-27T19:21:28.840Z,10.40
2019-04-27T19:23:58.557Z,10.40
2019-04-27T19:26:29.603Z,10.30
2019-04-27T19:29:08.459Z,10.10
2019-04-27T19:31:42.230Z,9.90
2019-04-27T19:34:11.769Z,9.90
2019-04-27T19:36:41.273Z,9.80
2019-04-27T19:39:13.926Z,9.80
2019-04-27T19:41:56.195Z,9.90
2019-04-27T19:44:14.873Z,9.80
2019-04-27T19:46:44.415Z,9.80
2019-04-27T19:49:14.024Z,10.00
2019-04-27T19:51:43.325Z,10.10
2019-04-27T19:54:12.603Z,10.20
2019-04-27T19:56:41.900Z,10.30
2019-04-27T19:59:15.944Z,10.40
2019-04-27T20:01:48.123Z,10.40
2019-04-27T20:04:28.462Z,10.50
2019-04-27T20:06:58.177Z,10.40
2019-04-27T20:09:32.086Z,10.30
2019-04-27T20:12:02.852Z,10.20
2019-04-27T20:14:34.223Z,10.20
2019-04-27T20:17:03.805Z,10.20
2019-04-27T20:19:33.099Z,10.30
2019-04-27T20:22:02.380Z,10.20
2019-04-27T20:24:33.546Z,9.90
2019-04-27T20:27:03.237Z,9.80
2019-04-27T20:29:32.514Z,9.80
2019-04-27T20:32:01.812Z,9.80
2019-04-27T20:34:31.159Z,9.80
2019-04-27T20:37:01.659Z,9.80
2019-04-27T20:39:31.295Z,9.70
2019-04-27T20:42:00.778Z,9.80
2019-04-27T20:44:31.192Z,9.90
2019-04-27T20:47:01.253Z,10.00
2019-04-27T20:49:30.616Z,10.10
2019-04-27T20:52:04.442Z,10.00
2019-04-27T20:54:33.726Z,10.00
2019-04-27T20:57:03.241Z,10.00
2019-04-27T20:59:32.510Z,9.90
2019-04-27T21:02:22.326Z,9.80
2019-04-27T21:04:52.526Z,9.70
2019-04-27T21:07:23.788Z,9.90
2019-04-27T21:09:53.063Z,10.20
2019-04-27T21:12:22.695Z,10.20
2019-04-27T21:14:52.304Z,10.20
2019-04-27T21:17:21.860Z,10.20
2019-04-27T21:19:51.603Z,10.20
2019-04-27T21:22:21.290Z,10.00
2019-04-27T21:24:51.473Z,9.90
2019-04-27T21:27:21.551Z,9.80
2019-04-27T21:29:51.581Z,9.70
2019-04-27T21:32:22.224Z,9.80
2019-04-27T21:34:51.645Z,9.80
2019-04-27T21:37:21.069Z,9.80
2019-04-27T21:39:53.304Z,9.70
2019-04-27T21:42:22.642Z,9.70
2019-04-27T21:44:53.036Z,9.80
2019-04-27T21:47:22.635Z,9.90
2019-04-27T21:49:52.242Z,9.90
2019-04-27T21:52:29.131Z,9.90
2019-04-27T21:54:58.425Z,9.90
2019-04-27T21:57:27.691Z,10.00
2019-04-27T21:59:57.231Z,10.00
2019-04-27T22:02:26.535Z,10.00
2019-04-27T22:04:56.136Z,9.90
2019-04-27T22:07:25.647Z,9.90
2019-04-27T22:09:55.002Z,9.70
2019-04-27T22:12:24.552Z,9.50
2019-04-27T22:14:53.827Z,9.40
2019-04-27T22:17:23.127Z,9.40
2019-04-27T22:19:54.038Z,9.40
2019-04-27T22:22:24.964Z,9.30
2019-04-27T22:24:56.171Z,9.20
2019-04-27T22:27:25.446Z,9.20
2019-04-27T22:29:54.737Z,9.10
2019-04-27T22:32:24.282Z,9.10
2019-04-27T22:34:53.571Z,9.00
2019-04-27T22:37:22.843Z,8.90
2019-04-27T22:40:01.039Z,9.30
2019-04-27T22:42:51.534Z,9.50
2019-04-27T22:45:22.523Z,9.40
2019-04-27T22:47:51.792Z,9.10
2019-04-27T22:50:21.335Z,9.00
2019-04-27T22:52:50.606Z,8.90
2019-04-27T22:55:21.842Z,8.80
2019-04-27T22:57:55.196Z,9.10
2019-04-27T23:00:42.767Z,8.90
2019-04-27T23:03:26.066Z,8.90
2019-04-27T23:05:55.354Z,8.90
2019-04-27T23:08:24.634Z,8.90
2019-04-27T23:10:53.922Z,9.00
2019-04-27T23:13:23.195Z,9.10
2019-04-27T23:15:54.133Z,9.00
2019-04-27T23:18:23.680Z,9.10
2019-04-27T23:20:52.955Z,9.10
2019-04-27T23:23:22.230Z,9.00
2019-04-27T23:25:51.786Z,8.90
2019-04-27T23:28:21.078Z,9.00
2019-04-27T23:30:52.230Z,9.00
2019-04-27T23:33:21.840Z,9.10
2019-04-27T23:35:51.745Z,9.20
2019-04-27T23:38:21.094Z,8.90
2019-04-27T23:40:51.786Z,8.90
2019-04-27T23:43:21.127Z,8.90
2019-04-27T23:45:51.654Z,8.70
2019-04-27T23:48:22.969Z,8.60
2019-04-27T23:50:53.600Z,8.50
2019-04-27T23:53:26.955Z,8.60
2019-04-27T23:55:55.946Z,8.80
2019-04-27T23:58:25.230Z,8.70
